Shippen, Pennsylvania
Current Conditions -  °F | °C
As of 10:15 AM on Monday 24 Nov 2014 (Local Time) from KN38 Reporting Station
Overcast Overcast  
Wind Chill: 59°   Ceiling: 5500
Heat Index: 59°   Visibility: 10mi
Dew Point: 54°   Wind: 16mph
Humidity: 82%   Direction: 190°S
Pressure: 29.5"   Gusts: 28mph
Location:  41.7308°N, 77.349°W
Report Text: KN38 241515Z AUTO 19014G24KT 10SM SCT017 SCT023 OVC055 15/12 A2950 RMK AO2
Loading
Personal Weather Stations






























Interactive Weather Map New forecast layout! Learn more

10-Day Weather Forecast

Advertisements
Track Severe Weather on mobile